createdAt,value
2022-08-19T00:00:53.105Z,97054.86
2022-08-19T00:03:22.714Z,97049.92
2022-08-19T00:05:52.600Z,97046.38
2022-08-19T00:08:21.875Z,97045.08
2022-08-19T00:10:51.163Z,97047.08
2022-08-19T00:13:21.491Z,97047.38
2022-08-19T00:15:51.175Z,97047.30
2022-08-19T00:18:21.842Z,97049.20
2022-08-19T00:20:51.351Z,97051.96
2022-08-19T00:23:20.791Z,97049.55
2022-08-19T00:25:51.207Z,97048.63
2022-08-19T00:28:22.120Z,97046.52
2022-08-19T00:30:54.088Z,97054.77
2022-08-19T00:33:24.824Z,97059.50
2022-08-19T00:35:56.116Z,97057.14
2022-08-19T00:38:29.641Z,97061.14
2022-08-19T00:41:08.430Z,97059.66
2022-08-19T00:43:37.702Z,97065.46
2022-08-19T00:46:07.198Z,97067.67
2022-08-19T00:48:38.471Z,97069.73
2022-08-19T00:51:07.931Z,97076.42
2022-08-19T00:53:38.567Z,97088.88
2022-08-19T00:56:10.793Z,97091.01
2022-08-19T00:58:41.461Z,97090.39
2022-08-19T01:01:12.476Z,97088.80
2022-08-19T01:03:57.591Z,97092.78
2022-08-19T01:06:28.730Z,97091.79
2022-08-19T01:08:58.975Z,97086.26
2022-08-19T01:11:36.392Z,97082.08
2022-08-19T01:14:07.373Z,97081.12
2022-08-19T01:16:40.781Z,97077.55
2022-08-19T01:19:21.513Z,97083.95
2022-08-19T01:22:13.972Z,97087.42
2022-08-19T01:24:49.997Z,97083.23
2022-08-19T01:27:22.640Z,97084.98
2022-08-19T01:29:56.497Z,97083.38
2022-08-19T01:32:33.502Z,97081.64
2022-08-19T01:35:06.923Z,97093.91
2022-08-19T01:37:59.831Z,97097.59
2022-08-19T01:40:35.629Z,97101.19
2022-08-19T01:43:08.099Z,97097.34
2022-08-19T01:45:43.210Z,97100.38
2022-08-19T01:48:16.220Z,97101.08
2022-08-19T01:50:50.845Z,97103.38
2022-08-19T01:53:21.496Z,97100.55
2022-08-19T01:55:58.373Z,97099.06
2022-08-19T01:58:44.303Z,97101.36
2022-08-19T02:01:16.061Z,97105.48
2022-08-19T02:03:48.429Z,97103.84
2022-08-19T02:06:20.424Z,97105.98
2022-08-19T02:09:00.682Z,97111.79
2022-08-19T02:11:38.576Z,97114.59
2022-08-19T02:14:09.920Z,97111.70
2022-08-19T02:16:43.134Z,97120.69
2022-08-19T02:19:14.089Z,97121.39
2022-08-19T02:21:46.074Z,97120.63
2022-08-19T02:24:18.827Z,97117.30
2022-08-19T02:26:49.006Z,97115.30
2022-08-19T02:29:19.086Z,97115.58
2022-08-19T02:31:50.318Z,97114.81
2022-08-19T02:34:22.296Z,97114.94
2022-08-19T02:36:54.410Z,97120.88
2022-08-19T02:39:25.435Z,97119.16
2022-08-19T02:41:55.553Z,97119.46
2022-08-19T02:44:31.205Z,97119.17
2022-08-19T02:47:02.439Z,97120.81
2022-08-19T02:49:34.671Z,97122.89
2022-08-19T02:52:05.979Z,97126.14
2022-08-19T02:54:36.468Z,97127.20
2022-08-19T02:57:07.791Z,97129.02
2022-08-19T02:59:37.572Z,97128.61
2022-08-19T03:02:07.943Z,97126.15
2022-08-19T03:04:38.772Z,97128.90
2022-08-19T03:07:11.191Z,97128.42
2022-08-19T03:09:42.468Z,97124.52
2022-08-19T03:12:13.626Z,97125.11
2022-08-19T03:14:43.305Z,97119.74
2022-08-19T03:17:12.998Z,97125.42
2022-08-19T03:19:44.527Z,97128.00
2022-08-19T03:22:14.522Z,97128.35
2022-08-19T03:24:45.305Z,97126.92
2022-08-19T03:27:15.533Z,97129.56
2022-08-19T03:29:45.392Z,97132.52
2022-08-19T03:32:19.850Z,97138.39
2022-08-19T03:35:03.750Z,97134.47
2022-08-19T03:37:33.235Z,97136.00
2022-08-19T03:40:04.482Z,97135.17
2022-08-19T03:42:49.016Z,97138.95
2022-08-19T03:45:20.017Z,97146.61
2022-08-19T03:47:50.197Z,97144.46
2022-08-19T03:50:21.010Z,97145.66
2022-08-19T03:52:54.255Z,97145.54
2022-08-19T03:55:24.270Z,97148.97
2022-08-19T03:57:58.630Z,97149.67
2022-08-19T04:00:28.118Z,97152.64
2022-08-19T04:02:59.996Z,97149.04
2022-08-19T04:05:31.131Z,97149.70
2022-08-19T04:08:00.544Z,97151.91
2022-08-19T04:10:30.586Z,97155.48
2022-08-19T04:12:59.934Z,97161.58
2022-08-19T04:15:33.058Z,97164.94
2022-08-19T04:18:02.333Z,97162.80
2022-08-19T04:20:31.663Z,97156.02
2022-08-19T04:23:00.748Z,97153.19
2022-08-19T04:25:30.902Z,97148.38
2022-08-19T04:27:59.525Z,97143.83
2022-08-19T04:30:28.550Z,97143.13
2022-08-19T04:32:57.332Z,97143.30
2022-08-19T04:35:26.527Z,97143.77
2022-08-19T04:37:55.635Z,97141.40
2022-08-19T04:40:43.163Z,97140.71
2022-08-19T04:43:15.323Z,97141.38
2022-08-19T04:45:48.106Z,97138.20
2022-08-19T04:48:26.877Z,97141.46
2022-08-19T04:50:59.083Z,97136.29
2022-08-19T04:53:37.699Z,97134.41
2022-08-19T04:56:13.899Z,97142.37
2022-08-19T04:58:45.143Z,97147.73
2022-08-19T05:01:18.799Z,97157.08
2022-08-19T05:03:47.810Z,97156.89
2022-08-19T05:06:20.525Z,97154.42
2022-08-19T05:08:50.223Z,97154.71
2022-08-19T05:11:26.423Z,97151.73
2022-08-19T05:13:56.716Z,97152.41
2022-08-19T05:16:27.620Z,97151.13
2022-08-19T05:19:15.564Z,97156.70
2022-08-19T05:22:04.335Z,97164.73
2022-08-19T05:24:35.567Z,97166.20
2022-08-19T05:27:07.970Z,97167.13
2022-08-19T05:29:37.477Z,97172.52
2022-08-19T05:32:11.874Z,97172.16
2022-08-19T05:34:41.085Z,97171.84
2022-08-19T05:37:10.189Z,97169.47
2022-08-19T05:39:41.945Z,97171.80
2022-08-19T05:42:13.391Z,97163.52
2022-08-19T05:44:45.353Z,97164.70
2022-08-19T05:47:16.206Z,97167.25
2022-08-19T05:49:44.830Z,97169.80
2022-08-19T05:52:18.659Z,97172.39
2022-08-19T05:54:51.219Z,97172.59
2022-08-19T05:57:20.559Z,97171.00
2022-08-19T05:59:53.269Z,97173.84
2022-08-19T06:02:28.799Z,97173.45
2022-08-19T06:04:57.443Z,97179.37
2022-08-19T06:07:26.360Z,97184.09
2022-08-19T06:09:59.698Z,97180.67
2022-08-19T06:12:34.757Z,97183.23
2022-08-19T06:15:09.165Z,97181.61
2022-08-19T06:17:38.125Z,97182.21
2022-08-19T06:20:10.250Z,97177.29
2022-08-19T06:22:40.828Z,97171.58
2022-08-19T06:25:10.831Z,97171.02
2022-08-19T06:27:58.632Z,97171.87
2022-08-19T06:30:31.919Z,97168.27
2022-08-19T06:33:01.003Z,97169.59
2022-08-19T06:35:30.791Z,97167.16
2022-08-19T06:38:00.860Z,97168.23
2022-08-19T06:40:30.216Z,97169.10
2022-08-19T06:43:01.816Z,97168.31
2022-08-19T06:45:34.885Z,97164.58
2022-08-19T06:48:04.620Z,97162.23
2022-08-19T06:50:33.318Z,97158.36
2022-08-19T06:53:07.166Z,97154.35
2022-08-19T06:55:36.598Z,97153.71
2022-08-19T06:58:06.610Z,97149.78
2022-08-19T07:00:35.659Z,97147.84
2022-08-19T07:03:08.494Z,97147.17
2022-08-19T07:05:45.719Z,97148.69
2022-08-19T07:08:15.476Z,97145.80
2022-08-19T07:10:46.926Z,97149.56
2022-08-19T07:13:16.019Z,97147.64
2022-08-19T07:15:45.561Z,97149.41
2022-08-19T07:18:14.637Z,97143.80
2022-08-19T07:20:44.533Z,97142.73
2022-08-19T07:23:16.656Z,97141.16
2022-08-19T07:25:52.965Z,97139.39
2022-08-19T07:28:24.680Z,97136.98
2022-08-19T07:30:54.123Z,97144.44
2022-08-19T07:33:24.379Z,97147.90
2022-08-19T07:35:56.818Z,97146.16
2022-08-19T07:38:25.300Z,97143.91
2022-08-19T07:40:55.619Z,97143.04
2022-08-19T07:43:26.316Z,97135.65
2022-08-19T07:46:04.439Z,97134.48
2022-08-19T07:48:33.983Z,97131.79
2022-08-19T07:51:06.447Z,97131.91
2022-08-19T07:53:39.641Z,97132.50
2022-08-19T07:56:09.151Z,97133.64
2022-08-19T07:58:41.928Z,97134.77
2022-08-19T08:01:16.669Z,97132.77
2022-08-19T08:04:04.888Z,97135.25
2022-08-19T08:06:53.971Z,97134.77
2022-08-19T08:09:39.396Z,97138.92
2022-08-19T08:12:30.816Z,97139.91
2022-08-19T08:15:08.517Z,97138.20
2022-08-19T08:17:49.109Z,97136.50
2022-08-19T08:20:19.407Z,97136.58
2022-08-19T08:23:08.408Z,97134.27
2022-08-19T08:25:38.619Z,97134.94
2022-08-19T08:28:08.843Z,97132.95
2022-08-19T08:30:45.251Z,97136.55
2022-08-19T08:35:47.514Z,97127.79
2022-08-19T08:38:19.072Z,97128.71
2022-08-19T08:40:57.869Z,97127.02
2022-08-19T08:43:32.204Z,97128.92
2022-08-19T08:46:04.501Z,97123.65
2022-08-19T08:48:55.974Z,97129.65
2022-08-19T08:51:35.172Z,97122.16
2022-08-19T08:54:09.769Z,97130.05
2022-08-19T08:56:44.459Z,97132.46
2022-08-19T08:59:29.427Z,97131.24
2022-08-19T09:01:58.119Z,97130.95
2022-08-19T09:04:27.719Z,97129.16
2022-08-19T09:07:26.242Z,97127.35
2022-08-19T09:10:44.311Z,97125.91
2022-08-19T09:13:37.485Z,97120.36
2022-08-19T09:16:17.456Z,97115.11
2022-08-19T09:18:55.770Z,97115.34
2022-08-19T09:21:33.176Z,97113.59
2022-08-19T09:24:05.803Z,97110.64
2022-08-19T09:26:52.313Z,97110.24
2022-08-19T09:29:23.690Z,97111.52
2022-08-19T09:31:52.377Z,97105.73
2022-08-19T09:34:22.202Z,97101.39
2022-08-19T09:36:54.882Z,97100.55
2022-08-19T09:39:24.064Z,97096.48
2022-08-19T09:41:54.109Z,97097.18
2022-08-19T09:44:22.675Z,97102.72
2022-08-19T09:46:52.267Z,97100.88
2022-08-19T09:49:25.049Z,97101.62
2022-08-19T09:51:57.526Z,97100.23
2022-08-19T09:54:27.133Z,97099.65
2022-08-19T09:56:59.059Z,97098.93
2022-08-19T09:59:29.111Z,97099.45
2022-08-19T10:02:03.817Z,97096.55
2022-08-19T10:04:58.126Z,97090.41
2022-08-19T10:07:29.028Z,97090.95
2022-08-19T10:10:10.567Z,97088.58
2022-08-19T10:12:39.439Z,97088.31
2022-08-19T10:15:09.226Z,97086.71
2022-08-19T10:17:38.665Z,97085.73
2022-08-19T10:20:08.426Z,97080.41
2022-08-19T10:22:38.791Z,97074.48
2022-08-19T10:25:08.176Z,97073.88
2022-08-19T10:27:36.985Z,97074.79
2022-08-19T10:30:11.222Z,97076.42
2022-08-19T10:32:40.105Z,97076.17
2022-08-19T10:35:16.202Z,97077.36
2022-08-19T10:37:57.468Z,97077.77
2022-08-19T10:40:33.140Z,97077.61
2022-08-19T10:43:01.771Z,97075.39
2022-08-19T10:45:30.457Z,97076.59
2022-08-19T10:47:59.398Z,97072.55
2022-08-19T10:50:47.068Z,97065.48
2022-08-19T10:53:15.956Z,97066.29
2022-08-19T10:56:04.714Z,97067.85
2022-08-19T10:58:33.705Z,97068.69
2022-08-19T11:01:02.781Z,97069.95
2022-08-19T11:03:31.999Z,97066.33
2022-08-19T11:06:07.383Z,97064.03
2022-08-19T11:08:38.874Z,97057.64
2022-08-19T11:11:09.879Z,97058.09
2022-08-19T11:13:41.383Z,97052.36
2022-08-19T11:16:15.291Z,97050.46
2022-08-19T11:18:47.235Z,97047.02
2022-08-19T11:21:21.790Z,97045.27
2022-08-19T11:23:53.125Z,97043.57
2022-08-19T11:26:22.938Z,97035.06
2022-08-19T11:28:54.700Z,97035.41
2022-08-19T11:31:29.162Z,97025.92
2022-08-19T11:34:04.405Z,97020.46
2022-08-19T11:36:34.537Z,97018.44
2022-08-19T11:39:04.889Z,97013.54
2022-08-19T11:41:33.480Z,97011.77
2022-08-19T11:44:04.114Z,97011.27
2022-08-19T11:46:32.901Z,97008.45
2022-08-19T11:49:02.807Z,97006.30
2022-08-19T11:51:31.498Z,97002.02
2022-08-19T11:54:01.340Z,97005.89
2022-08-19T11:56:30.202Z,97002.39
2022-08-19T11:59:01.521Z,96997.83
2022-08-19T12:01:30.649Z,96994.20
2022-08-19T12:04:00.397Z,96993.66
2022-08-19T12:06:33.068Z,96991.91
2022-08-19T12:09:06.840Z,96993.44
2022-08-19T12:11:41.365Z,96993.05
2022-08-19T12:14:15.473Z,96994.87
2022-08-19T12:16:50.939Z,96986.74
2022-08-19T12:19:22.653Z,96986.45
2022-08-19T12:21:52.487Z,96976.95
2022-08-19T12:24:24.518Z,96981.64
2022-08-19T12:26:54.680Z,96984.84
2022-08-19T12:29:29.710Z,96981.69
2022-08-19T12:32:03.872Z,96985.11
2022-08-19T12:34:34.450Z,96985.39
2022-08-19T12:37:05.788Z,96987.50
2022-08-19T12:39:45.403Z,96985.08
2022-08-19T12:42:16.400Z,96986.35
2022-08-19T12:44:46.293Z,96982.66
2022-08-19T12:47:15.700Z,96979.07
2022-08-19T12:49:53.921Z,96975.92
2022-08-19T12:52:27.113Z,96977.38
2022-08-19T12:54:58.111Z,96975.97
2022-08-19T12:57:32.146Z,96968.17
2022-08-19T13:00:12.709Z,96973.03
2022-08-19T13:02:45.910Z,96970.30
2022-08-19T13:05:18.482Z,96967.95
2022-08-19T13:07:47.374Z,96963.02
2022-08-19T13:10:19.212Z,96966.30
2022-08-19T13:12:50.388Z,96956.98
2022-08-19T13:15:23.742Z,96958.02
2022-08-19T13:17:55.059Z,96964.23
2022-08-19T13:20:24.388Z,96959.79
2022-08-19T13:22:53.219Z,96957.23
2022-08-19T13:25:22.614Z,96961.86
2022-08-19T13:27:53.208Z,96959.55
2022-08-19T13:30:40.457Z,96956.29
2022-08-19T13:33:16.242Z,96951.95
2022-08-19T13:35:51.681Z,96944.86
2022-08-19T13:38:22.738Z,96943.90
2022-08-19T13:40:53.836Z,96943.70
2022-08-19T13:43:26.928Z,96943.12
2022-08-19T13:45:59.501Z,96945.46
2022-08-19T13:48:28.240Z,96946.44
2022-08-19T13:50:57.488Z,96941.69
2022-08-19T13:53:26.174Z,96940.40
2022-08-19T13:55:55.377Z,96935.93
2022-08-19T13:58:24.369Z,96942.05
2022-08-19T14:00:52.987Z,96940.92
2022-08-19T14:03:22.554Z,96939.98
2022-08-19T14:05:50.935Z,96938.20
2022-08-19T14:08:20.234Z,96940.52
2022-08-19T14:10:49.845Z,96936.23
2022-08-19T14:13:21.611Z,96934.50
2022-08-19T14:15:51.824Z,96931.98
2022-08-19T14:18:20.612Z,96931.77
2022-08-19T14:20:49.202Z,96931.78
2022-08-19T14:23:17.880Z,96934.98
2022-08-19T14:25:47.794Z,96929.98
2022-08-19T14:28:18.016Z,96932.17
2022-08-19T14:30:50.181Z,96930.55
2022-08-19T14:33:24.094Z,96932.99
2022-08-19T14:35:59.649Z,96928.23
2022-08-19T14:38:33.092Z,96926.16
2022-08-19T14:41:23.529Z,96922.91
2022-08-19T14:43:54.208Z,96919.63
2022-08-19T14:46:28.092Z,96915.95
2022-08-19T14:48:59.833Z,96918.71
2022-08-19T14:51:29.228Z,96915.66
2022-08-19T14:53:58.123Z,96915.94
2022-08-19T14:56:30.089Z,96912.95
2022-08-19T14:59:02.251Z,96914.10
2022-08-19T15:01:31.095Z,96910.83
2022-08-19T15:03:59.831Z,96907.89
2022-08-19T15:06:29.437Z,96907.91
2022-08-19T15:09:02.041Z,96903.48
2022-08-19T15:11:34.857Z,96904.45
2022-08-19T15:14:04.195Z,96906.46
2022-08-19T15:16:34.253Z,96909.66
2022-08-19T15:19:02.898Z,96906.48
2022-08-19T15:21:31.965Z,96906.41
2022-08-19T15:24:02.130Z,96902.20
2022-08-19T15:26:33.555Z,96902.89
2022-08-19T15:29:05.988Z,96900.55
2022-08-19T15:31:38.186Z,96900.10
2022-08-19T15:34:07.993Z,96900.55
2022-08-19T15:36:38.237Z,96901.95
2022-08-19T15:39:07.649Z,96901.06
2022-08-19T15:41:37.236Z,96900.61
2022-08-19T15:44:11.623Z,96900.06
2022-08-19T15:46:43.427Z,96898.27
2022-08-19T15:49:14.383Z,96900.53
2022-08-19T15:51:45.759Z,96899.02
2022-08-19T15:54:19.348Z,96900.63
2022-08-19T15:57:08.575Z,96901.38
2022-08-19T16:00:01.540Z,96901.87
2022-08-19T16:02:53.761Z,96898.77
2022-08-19T16:05:45.096Z,96891.85
2022-08-19T16:08:15.821Z,96894.98
2022-08-19T16:10:44.719Z,96894.58
2022-08-19T16:13:13.609Z,96893.00
2022-08-19T16:15:43.629Z,96895.88
2022-08-19T16:18:12.310Z,96894.28
2022-08-19T16:20:41.397Z,96891.91
2022-08-19T16:23:11.519Z,96885.21
2022-08-19T16:25:40.516Z,96884.70
2022-08-19T16:28:11.027Z,96887.76
2022-08-19T16:30:41.034Z,96887.46
2022-08-19T16:33:10.879Z,96886.86
2022-08-19T16:35:40.082Z,96886.77
2022-08-19T16:38:08.956Z,96883.89
2022-08-19T16:40:37.652Z,96885.23
2022-08-19T16:43:06.838Z,96884.86
2022-08-19T16:45:35.635Z,96882.05
2022-08-19T16:48:04.894Z,96881.05
2022-08-19T16:50:48.768Z,96876.59
2022-08-19T16:53:21.831Z,96876.28
2022-08-19T16:55:51.175Z,96875.70
2022-08-19T16:58:22.360Z,96872.43
2022-08-19T17:01:03.719Z,96873.88
2022-08-19T17:03:36.352Z,96870.54
2022-08-19T17:06:20.856Z,96875.84
2022-08-19T17:08:51.724Z,96875.91
2022-08-19T17:11:21.975Z,96881.84
2022-08-19T17:13:52.000Z,96886.59
2022-08-19T17:16:24.824Z,96894.55
2022-08-19T17:18:56.171Z,96897.33
2022-08-19T17:21:28.458Z,96895.34
2022-08-19T17:23:58.927Z,96899.74
2022-08-19T17:26:29.605Z,96901.54
2022-08-19T17:28:59.925Z,96899.48
2022-08-19T17:31:31.542Z,96902.96
2022-08-19T17:34:01.034Z,96909.09
2022-08-19T17:36:34.418Z,96910.73
2022-08-19T17:39:05.326Z,96912.62
2022-08-19T17:41:34.740Z,96909.72
2022-08-19T17:44:04.742Z,96915.26
2022-08-19T17:46:34.281Z,96920.41
2022-08-19T17:49:03.041Z,96923.73
2022-08-19T17:51:35.971Z,96931.33
2022-08-19T17:54:05.891Z,96934.71
2022-08-19T17:56:34.769Z,96939.98
2022-08-19T17:59:03.457Z,96942.09
2022-08-19T18:01:52.107Z,96945.20
2022-08-19T18:04:25.195Z,96945.64
2022-08-19T18:06:55.645Z,96947.15
2022-08-19T18:09:42.254Z,96947.64
2022-08-19T18:12:14.247Z,96951.20
2022-08-19T18:14:43.089Z,96952.44
2022-08-19T18:17:15.537Z,96953.77
2022-08-19T18:19:45.267Z,96951.61
2022-08-19T18:22:37.518Z,96953.83
2022-08-19T18:25:11.839Z,96953.18
2022-08-19T18:27:43.534Z,96949.83
2022-08-19T18:30:13.091Z,96958.81
2022-08-19T18:32:42.683Z,96955.85
2022-08-19T18:35:18.366Z,96957.91
2022-08-19T18:37:47.435Z,96954.45
2022-08-19T18:40:38.653Z,96951.73
2022-08-19T18:43:26.186Z,96953.34
2022-08-19T18:46:13.778Z,96958.20
2022-08-19T18:49:02.461Z,96957.30
2022-08-19T18:51:32.448Z,96961.03
2022-08-19T18:54:01.878Z,96960.80
2022-08-19T18:56:35.176Z,96964.33
2022-08-19T18:59:03.973Z,96966.48
2022-08-19T19:01:37.087Z,96969.36
2022-08-19T19:04:11.674Z,96967.05
2022-08-19T19:06:41.701Z,96970.34
2022-08-19T19:09:19.894Z,96969.66
2022-08-19T19:11:52.172Z,96968.75
2022-08-19T19:14:48.587Z,96965.81
2022-08-19T19:17:19.034Z,96974.35
2022-08-19T19:19:48.031Z,96972.54
2022-08-19T19:22:23.170Z,96972.66
2022-08-19T19:24:54.513Z,96971.92
2022-08-19T19:27:23.613Z,96971.63
2022-08-19T19:29:53.115Z,96972.52
2022-08-19T19:32:28.886Z,96971.41
2022-08-19T19:34:57.871Z,96973.60
2022-08-19T19:37:26.642Z,96975.73
2022-08-19T19:39:55.255Z,96976.01
2022-08-19T19:42:24.625Z,96975.84
2022-08-19T19:44:55.040Z,96978.81
2022-08-19T19:47:25.946Z,96983.99
2022-08-19T19:50:14.706Z,96987.84
2022-08-19T19:52:46.509Z,96989.16
2022-08-19T19:55:18.609Z,96992.70
2022-08-19T19:57:49.302Z,96996.22
2022-08-19T20:00:19.265Z,96997.27
2022-08-19T20:02:50.823Z,97002.19
2022-08-19T20:05:21.871Z,97003.95
2022-08-19T20:08:13.237Z,97006.33
2022-08-19T20:10:44.066Z,97015.60
2022-08-19T20:13:15.829Z,97020.36
2022-08-19T20:15:44.920Z,97020.45
2022-08-19T20:18:16.779Z,97018.36
2022-08-19T20:20:46.900Z,97013.95
2022-08-19T20:23:15.683Z,97015.75
2022-08-19T20:25:44.485Z,97013.20
2022-08-19T20:28:13.384Z,97018.31
2022-08-19T20:30:46.347Z,97019.30
2022-08-19T20:33:15.654Z,97018.92
2022-08-19T20:35:45.526Z,97018.48
2022-08-19T20:38:14.357Z,97023.07
2022-08-19T20:40:43.045Z,97016.46
2022-08-19T20:43:13.801Z,97018.89
2022-08-19T20:45:42.970Z,97015.52
2022-08-19T20:48:12.780Z,97018.64
2022-08-19T20:50:41.878Z,97017.51
2022-08-19T20:53:13.432Z,97022.02
2022-08-19T20:55:47.504Z,97021.20
2022-08-19T20:58:21.530Z,97018.84
2022-08-19T21:00:52.637Z,97015.24
2022-08-19T21:03:24.151Z,97016.45
2022-08-19T21:05:53.249Z,97017.44
2022-08-19T21:08:23.405Z,97020.89
2022-08-19T21:10:53.764Z,97021.69
2022-08-19T21:13:23.298Z,97024.90
2022-08-19T21:15:52.687Z,97027.44
2022-08-19T21:18:23.330Z,97026.68
2022-08-19T21:20:52.320Z,97024.45
2022-08-19T21:23:25.140Z,97020.04
2022-08-19T21:25:56.836Z,97016.73
2022-08-19T21:28:34.389Z,97019.21
2022-08-19T21:31:10.646Z,97019.15
2022-08-19T21:33:39.608Z,97017.08
2022-08-19T21:36:09.224Z,97018.59
2022-08-19T21:38:38.414Z,97018.90
2022-08-19T21:41:07.455Z,97015.98
2022-08-19T21:43:38.036Z,97012.18
2022-08-19T21:46:08.159Z,97016.70
2022-08-19T21:48:37.261Z,97017.15
2022-08-19T21:51:06.553Z,97014.98
2022-08-19T21:53:36.070Z,97015.39
2022-08-19T21:56:06.863Z,97014.61
2022-08-19T21:58:39.579Z,97016.49
2022-08-19T22:01:08.906Z,97018.39
2022-08-19T22:03:38.943Z,97022.33
2022-08-19T22:06:08.769Z,97019.55
2022-08-19T22:08:37.553Z,97024.00
2022-08-19T22:11:06.484Z,97022.06
2022-08-19T22:13:40.264Z,97024.06
2022-08-19T22:16:10.610Z,97016.47
2022-08-19T22:18:40.319Z,97011.27
2022-08-19T22:21:11.930Z,97010.89
2022-08-19T22:23:42.697Z,97010.17
2022-08-19T22:26:13.453Z,97011.36
2022-08-19T22:28:43.035Z,97014.05
2022-08-19T22:31:13.089Z,97013.73
2022-08-19T22:33:42.396Z,97010.84
2022-08-19T22:36:11.361Z,97011.20
2022-08-19T22:38:40.713Z,97013.48
2022-08-19T22:41:10.066Z,97018.94
2022-08-19T22:43:38.854Z,97022.07
2022-08-19T22:46:16.824Z,97020.48
2022-08-19T22:48:48.332Z,97015.08
2022-08-19T22:51:43.922Z,97016.96
2022-08-19T22:54:12.609Z,97013.75
2022-08-19T22:56:41.403Z,97013.30
2022-08-19T22:59:11.730Z,97009.70
2022-08-19T23:01:43.473Z,97010.09
2022-08-19T23:04:13.310Z,97008.63
2022-08-19T23:06:42.498Z,97008.63
2022-08-19T23:09:16.957Z,97004.50
2022-08-19T23:11:47.761Z,96997.94
2022-08-19T23:14:18.312Z,96992.75
2022-08-19T23:16:51.067Z,96991.89
2022-08-19T23:19:21.928Z,96992.78
2022-08-19T23:21:51.110Z,96998.75
2022-08-19T23:24:20.801Z,97000.30
2022-08-19T23:27:08.352Z,96994.67
2022-08-19T23:29:56.442Z,96992.01
2022-08-19T23:32:25.879Z,96988.30
2022-08-19T23:34:56.986Z,96982.41
2022-08-19T23:37:26.791Z,96982.13
2022-08-19T23:39:56.083Z,96981.60
2022-08-19T23:42:26.980Z,96981.17
2022-08-19T23:45:07.222Z,96983.56
2022-08-19T23:47:36.666Z,96989.81
2022-08-19T23:50:12.079Z,96991.48
2022-08-19T23:52:55.980Z,96994.73
2022-08-19T23:55:30.604Z,96992.85
2022-08-19T23:58:01.421Z,96990.64
